sensor_id;sensor_type;location;lat;lon;timestamp;P1;durP1;ratioP1;P2;durP2;ratioP2
48613;SDS011;34408;51.426;5.444;2022-09-13T00:02:10;4.00;;;2.78;;
48613;SDS011;34408;51.426;5.444;2022-09-13T00:04:38;4.13;;;2.97;;
48613;SDS011;34408;51.426;5.444;2022-09-13T00:07:06;5.30;;;3.00;;
48613;SDS011;34408;51.426;5.444;2022-09-13T00:09:33;4.43;;;3.00;;
48613;SDS011;34408;51.426;5.444;2022-09-13T00:12:02;4.57;;;2.88;;
48613;SDS011;34408;51.426;5.444;2022-09-13T00:14:32;4.38;;;3.17;;
48613;SDS011;34408;51.426;5.444;2022-09-13T00:16:59;3.80;;;2.90;;
48613;SDS011;34408;51.426;5.444;2022-09-13T00:19:27;6.00;;;3.75;;
48613;SDS011;34408;51.426;5.444;2022-09-13T00:21:55;3.47;;;2.80;;
48613;SDS011;34408;51.426;5.444;2022-09-13T00:24:22;6.55;;;2.97;;
48613;SDS011;34408;51.426;5.444;2022-09-13T00:26:50;5.32;;;2.70;;
48613;SDS011;34408;51.426;5.444;2022-09-13T00:29:18;4.28;;;2.80;;
48613;SDS011;34408;51.426;5.444;2022-09-13T00:31:47;8.32;;;3.05;;
48613;SDS011;34408;51.426;5.444;2022-09-13T00:34:14;5.28;;;3.20;;
48613;SDS011;34408;51.426;5.444;2022-09-13T00:36:42;5.68;;;3.20;;
48613;SDS011;34408;51.426;5.444;2022-09-13T00:39:10;5.05;;;2.80;;
48613;SDS011;34408;51.426;5.444;2022-09-13T00:41:38;5.60;;;3.63;;
48613;SDS011;34408;51.426;5.444;2022-09-13T00:47:08;5.35;;;3.13;;
48613;SDS011;34408;51.426;5.444;2022-09-13T00:49:39;5.10;;;3.58;;
48613;SDS011;34408;51.426;5.444;2022-09-13T00:52:09;3.70;;;2.72;;
48613;SDS011;34408;51.426;5.444;2022-09-13T00:54:44;3.78;;;2.83;;
48613;SDS011;34408;51.426;5.444;2022-09-13T00:57:13;4.38;;;3.00;;
48613;SDS011;34408;51.426;5.444;2022-09-13T00:59:45;7.28;;;3.63;;
48613;SDS011;34408;51.426;5.444;2022-09-13T01:02:19;4.22;;;2.97;;
48613;SDS011;34408;51.426;5.444;2022-09-13T01:04:47;4.00;;;2.90;;
48613;SDS011;34408;51.426;5.444;2022-09-13T01:07:15;4.57;;;3.22;;
48613;SDS011;34408;51.426;5.444;2022-09-13T01:09:45;5.25;;;3.33;;
48613;SDS011;34408;51.426;5.444;2022-09-13T01:12:20;4.68;;;3.22;;
48613;SDS011;34408;51.426;5.444;2022-09-13T01:14:57;6.25;;;3.15;;
48613;SDS011;34408;51.426;5.444;2022-09-13T01:17:29;6.53;;;2.72;;
48613;SDS011;34408;51.426;5.444;2022-09-13T01:19:58;4.85;;;2.70;;
48613;SDS011;34408;51.426;5.444;2022-09-13T01:22:34;3.90;;;2.95;;
48613;SDS011;34408;51.426;5.444;2022-09-13T01:28:34;5.93;;;3.10;;
48613;SDS011;34408;51.426;5.444;2022-09-13T01:31:21;5.28;;;3.03;;
48613;SDS011;34408;51.426;5.444;2022-09-13T01:33:59;4.65;;;3.50;;
48613;SDS011;34408;51.426;5.444;2022-09-13T01:36:53;3.53;;;2.55;;
48613;SDS011;34408;51.426;5.444;2022-09-13T01:39:33;4.82;;;3.08;;
48613;SDS011;34408;51.426;5.444;2022-09-13T01:42:17;5.57;;;3.20;;
48613;SDS011;34408;51.426;5.444;2022-09-13T01:44:58;4.90;;;2.75;;
48613;SDS011;34408;51.426;5.444;2022-09-13T01:47:36;5.72;;;2.83;;
48613;SDS011;34408;51.426;5.444;2022-09-13T01:50:12;4.35;;;2.80;;
48613;SDS011;34408;51.426;5.444;2022-09-13T01:52:48;4.57;;;3.35;;
48613;SDS011;34408;51.426;5.444;2022-09-13T01:55:25;5.45;;;3.13;;
48613;SDS011;34408;51.426;5.444;2022-09-13T01:58:02;3.95;;;2.63;;
48613;SDS011;34408;51.426;5.444;2022-09-13T02:00:36;5.60;;;3.05;;
48613;SDS011;34408;51.426;5.444;2022-09-13T02:03:13;6.18;;;3.15;;
48613;SDS011;34408;51.426;5.444;2022-09-13T02:05:44;4.10;;;2.90;;
48613;SDS011;34408;51.426;5.444;2022-09-13T02:08:16;4.53;;;3.10;;
48613;SDS011;34408;51.426;5.444;2022-09-13T02:10:48;4.60;;;3.03;;
48613;SDS011;34408;51.426;5.444;2022-09-13T02:13:20;4.63;;;3.42;;
48613;SDS011;34408;51.426;5.444;2022-09-13T02:15:51;4.47;;;3.30;;
48613;SDS011;34408;51.426;5.444;2022-09-13T02:18:26;5.53;;;3.60;;
48613;SDS011;34408;51.426;5.444;2022-09-13T02:20:59;4.72;;;3.50;;
48613;SDS011;34408;51.426;5.444;2022-09-13T02:23:33;3.95;;;3.20;;
48613;SDS011;34408;51.426;5.444;2022-09-13T02:26:07;5.65;;;3.30;;
48613;SDS011;34408;51.426;5.444;2022-09-13T02:28:38;5.07;;;3.30;;
48613;SDS011;34408;51.426;5.444;2022-09-13T02:31:10;7.65;;;3.55;;
48613;SDS011;34408;51.426;5.444;2022-09-13T02:33:41;4.63;;;3.17;;
48613;SDS011;34408;51.426;5.444;2022-09-13T02:36:13;4.75;;;3.08;;
48613;SDS011;34408;51.426;5.444;2022-09-13T02:38:46;3.90;;;3.03;;
48613;SDS011;34408;51.426;5.444;2022-09-13T02:41:22;4.93;;;3.00;;
48613;SDS011;34408;51.426;5.444;2022-09-13T02:43:56;6.90;;;3.22;;
48613;SDS011;34408;51.426;5.444;2022-09-13T02:46:33;5.68;;;3.08;;
48613;SDS011;34408;51.426;5.444;2022-09-13T02:49:16;3.42;;;2.80;;
48613;SDS011;34408;51.426;5.444;2022-09-13T02:51:53;4.50;;;3.15;;
48613;SDS011;34408;51.426;5.444;2022-09-13T02:54:24;3.47;;;2.80;;
48613;SDS011;34408;51.426;5.444;2022-09-13T02:57:00;9.02;;;3.08;;
48613;SDS011;34408;51.426;5.444;2022-09-13T02:59:32;5.45;;;3.25;;
48613;SDS011;34408;51.426;5.444;2022-09-13T03:02:02;4.22;;;3.00;;
48613;SDS011;34408;51.426;5.444;2022-09-13T03:04:34;6.07;;;3.20;;
48613;SDS011;34408;51.426;5.444;2022-09-13T03:07:02;5.55;;;3.13;;
48613;SDS011;34408;51.426;5.444;2022-09-13T03:09:32;4.57;;;2.95;;
48613;SDS011;34408;51.426;5.444;2022-09-13T03:12:05;5.28;;;3.28;;
48613;SDS011;34408;51.426;5.444;2022-09-13T03:14:46;3.97;;;2.92;;
48613;SDS011;34408;51.426;5.444;2022-09-13T03:17:27;3.45;;;3.15;;
48613;SDS011;34408;51.426;5.444;2022-09-13T03:20:07;5.75;;;3.72;;
48613;SDS011;34408;51.426;5.444;2022-09-13T03:22:46;4.28;;;2.90;;
48613;SDS011;34408;51.426;5.444;2022-09-13T03:25:41;5.35;;;3.05;;
48613;SDS011;34408;51.426;5.444;2022-09-13T03:28:24;3.75;;;2.80;;
48613;SDS011;34408;51.426;5.444;2022-09-13T03:31:01;3.53;;;2.97;;
48613;SDS011;34408;51.426;5.444;2022-09-13T03:33:35;4.70;;;3.30;;
48613;SDS011;34408;51.426;5.444;2022-09-13T03:36:13;6.47;;;3.28;;
48613;SDS011;34408;51.426;5.444;2022-09-13T03:38:44;4.13;;;2.92;;
48613;SDS011;34408;51.426;5.444;2022-09-13T03:41:21;5.43;;;2.90;;
48613;SDS011;34408;51.426;5.444;2022-09-13T03:43:54;5.72;;;3.25;;
48613;SDS011;34408;51.426;5.444;2022-09-13T03:46:26;3.83;;;2.75;;
48613;SDS011;34408;51.426;5.444;2022-09-13T03:48:57;3.50;;;2.95;;
48613;SDS011;34408;51.426;5.444;2022-09-13T03:51:30;6.55;;;3.83;;
48613;SDS011;34408;51.426;5.444;2022-09-13T03:54:00;3.38;;;2.83;;
48613;SDS011;34408;51.426;5.444;2022-09-13T03:56:31;5.60;;;3.30;;
48613;SDS011;34408;51.426;5.444;2022-09-13T03:58:58;3.10;;;2.53;;
48613;SDS011;34408;51.426;5.444;2022-09-13T04:01:26;4.85;;;3.13;;
48613;SDS011;34408;51.426;5.444;2022-09-13T04:03:54;4.40;;;3.42;;
48613;SDS011;34408;51.426;5.444;2022-09-13T04:06:22;3.80;;;2.78;;
48613;SDS011;34408;51.426;5.444;2022-09-13T04:08:51;4.47;;;2.67;;
48613;SDS011;34408;51.426;5.444;2022-09-13T04:11:19;4.80;;;3.20;;
48613;SDS011;34408;51.426;5.444;2022-09-13T04:13:47;3.40;;;2.83;;
48613;SDS011;34408;51.426;5.444;2022-09-13T04:16:15;5.80;;;3.50;;
48613;SDS011;34408;51.426;5.444;2022-09-13T04:18:43;5.32;;;2.95;;
48613;SDS011;34408;51.426;5.444;2022-09-13T04:21:10;4.40;;;2.92;;
48613;SDS011;34408;51.426;5.444;2022-09-13T04:23:38;5.40;;;3.10;;
48613;SDS011;34408;51.426;5.444;2022-09-13T04:26:07;4.50;;;2.80;;
48613;SDS011;34408;51.426;5.444;2022-09-13T04:28:35;4.57;;;3.08;;
48613;SDS011;34408;51.426;5.444;2022-09-13T04:31:03;3.50;;;2.92;;
48613;SDS011;34408;51.426;5.444;2022-09-13T04:33:31;6.40;;;3.30;;
48613;SDS011;34408;51.426;5.444;2022-09-13T04:35:59;4.82;;;3.25;;
48613;SDS011;34408;51.426;5.444;2022-09-13T04:38:27;6.78;;;3.08;;
48613;SDS011;34408;51.426;5.444;2022-09-13T04:40:57;4.07;;;3.38;;
48613;SDS011;34408;51.426;5.444;2022-09-13T04:43:26;4.90;;;3.00;;
48613;SDS011;34408;51.426;5.444;2022-09-13T04:45:53;4.90;;;3.25;;
48613;SDS011;34408;51.426;5.444;2022-09-13T04:48:25;5.15;;;3.13;;
48613;SDS011;34408;51.426;5.444;2022-09-13T04:50:59;4.57;;;3.15;;
48613;SDS011;34408;51.426;5.444;2022-09-13T04:53:27;5.45;;;3.45;;
48613;SDS011;34408;51.426;5.444;2022-09-13T04:55:58;12.50;;;3.47;;
48613;SDS011;34408;51.426;5.444;2022-09-13T04:58:28;4.22;;;3.25;;
48613;SDS011;34408;51.426;5.444;2022-09-13T05:00:59;3.40;;;2.90;;
48613;SDS011;34408;51.426;5.444;2022-09-13T05:03:28;4.30;;;3.10;;
48613;SDS011;34408;51.426;5.444;2022-09-13T05:05:59;4.32;;;2.75;;
48613;SDS011;34408;51.426;5.444;2022-09-13T05:08:29;6.72;;;3.08;;
48613;SDS011;34408;51.426;5.444;2022-09-13T05:10:57;4.53;;;2.85;;
48613;SDS011;34408;51.426;5.444;2022-09-13T05:13:25;5.32;;;3.13;;
48613;SDS011;34408;51.426;5.444;2022-09-13T05:15:55;5.40;;;3.50;;
48613;SDS011;34408;51.426;5.444;2022-09-13T05:18:24;4.10;;;2.80;;
48613;SDS011;34408;51.426;5.444;2022-09-13T05:20:53;4.50;;;3.38;;
48613;SDS011;34408;51.426;5.444;2022-09-13T05:23:21;6.00;;;3.40;;
48613;SDS011;34408;51.426;5.444;2022-09-13T05:25:51;3.97;;;3.08;;
48613;SDS011;34408;51.426;5.444;2022-09-13T05:28:20;4.68;;;2.80;;
48613;SDS011;34408;51.426;5.444;2022-09-13T05:30:55;4.30;;;3.00;;
48613;SDS011;34408;51.426;5.444;2022-09-13T05:33:24;4.18;;;2.88;;
48613;SDS011;34408;51.426;5.444;2022-09-13T05:35:52;4.85;;;3.28;;
48613;SDS011;34408;51.426;5.444;2022-09-13T05:38:20;7.38;;;3.28;;
48613;SDS011;34408;51.426;5.444;2022-09-13T05:40:52;6.05;;;3.70;;
48613;SDS011;34408;51.426;5.444;2022-09-13T05:43:21;5.03;;;3.45;;
48613;SDS011;34408;51.426;5.444;2022-09-13T05:45:51;6.53;;;3.97;;
48613;SDS011;34408;51.426;5.444;2022-09-13T05:48:28;5.57;;;3.53;;
48613;SDS011;34408;51.426;5.444;2022-09-13T05:50:56;4.05;;;3.10;;
48613;SDS011;34408;51.426;5.444;2022-09-13T05:53:31;3.60;;;3.08;;
48613;SDS011;34408;51.426;5.444;2022-09-13T05:55:59;5.07;;;3.45;;
48613;SDS011;34408;51.426;5.444;2022-09-13T05:58:26;4.38;;;3.35;;
48613;SDS011;34408;51.426;5.444;2022-09-13T06:00:54;5.13;;;3.90;;
48613;SDS011;34408;51.426;5.444;2022-09-13T06:03:24;3.58;;;2.70;;
48613;SDS011;34408;51.426;5.444;2022-09-13T06:05:53;5.07;;;3.28;;
48613;SDS011;34408;51.426;5.444;2022-09-13T06:08:22;7.78;;;3.55;;
48613;SDS011;34408;51.426;5.444;2022-09-13T06:10:53;7.38;;;3.20;;
48613;SDS011;34408;51.426;5.444;2022-09-13T06:13:22;8.75;;;3.42;;
48613;SDS011;34408;51.426;5.444;2022-09-13T06:15:50;7.60;;;3.00;;
48613;SDS011;34408;51.426;5.444;2022-09-13T06:18:18;8.07;;;4.38;;
48613;SDS011;34408;51.426;5.444;2022-09-13T06:20:48;5.80;;;3.40;;
48613;SDS011;34408;51.426;5.444;2022-09-13T06:23:17;4.22;;;3.10;;
48613;SDS011;34408;51.426;5.444;2022-09-13T06:25:44;6.13;;;3.60;;
48613;SDS011;34408;51.426;5.444;2022-09-13T06:28:12;9.45;;;3.90;;
48613;SDS011;34408;51.426;5.444;2022-09-13T06:30:39;7.75;;;3.30;;
48613;SDS011;34408;51.426;5.444;2022-09-13T06:33:07;5.25;;;3.10;;
48613;SDS011;34408;51.426;5.444;2022-09-13T06:35:35;6.88;;;3.30;;
48613;SDS011;34408;51.426;5.444;2022-09-13T06:38:04;4.97;;;3.08;;
48613;SDS011;34408;51.426;5.444;2022-09-13T06:40:32;4.55;;;3.30;;
48613;SDS011;34408;51.426;5.444;2022-09-13T06:43:00;7.10;;;3.25;;
48613;SDS011;34408;51.426;5.444;2022-09-13T06:45:27;5.47;;;3.55;;
48613;SDS011;34408;51.426;5.444;2022-09-13T06:47:55;5.75;;;3.05;;
48613;SDS011;34408;51.426;5.444;2022-09-13T06:50:23;4.80;;;3.30;;
48613;SDS011;34408;51.426;5.444;2022-09-13T06:52:51;7.10;;;3.58;;
48613;SDS011;34408;51.426;5.444;2022-09-13T06:55:20;7.22;;;3.65;;
48613;SDS011;34408;51.426;5.444;2022-09-13T06:57:47;6.32;;;3.78;;
48613;SDS011;34408;51.426;5.444;2022-09-13T07:00:15;6.35;;;3.67;;
48613;SDS011;34408;51.426;5.444;2022-09-13T07:02:43;5.65;;;3.60;;
48613;SDS011;34408;51.426;5.444;2022-09-13T07:05:11;7.00;;;3.28;;
48613;SDS011;34408;51.426;5.444;2022-09-13T07:07:38;4.07;;;3.35;;
48613;SDS011;34408;51.426;5.444;2022-09-13T07:10:06;6.20;;;3.45;;
48613;SDS011;34408;51.426;5.444;2022-09-13T07:12:36;5.30;;;3.65;;
48613;SDS011;34408;51.426;5.444;2022-09-13T07:15:07;5.18;;;3.65;;
48613;SDS011;34408;51.426;5.444;2022-09-13T07:17:35;4.93;;;3.15;;
48613;SDS011;34408;51.426;5.444;2022-09-13T07:20:03;4.43;;;2.95;;
48613;SDS011;34408;51.426;5.444;2022-09-13T07:22:33;5.82;;;2.90;;
48613;SDS011;34408;51.426;5.444;2022-09-13T07:25:01;4.82;;;3.42;;
48613;SDS011;34408;51.426;5.444;2022-09-13T07:27:29;7.43;;;3.47;;
48613;SDS011;34408;51.426;5.444;2022-09-13T07:29:58;4.47;;;3.30;;
48613;SDS011;34408;51.426;5.444;2022-09-13T07:32:26;6.70;;;3.58;;
48613;SDS011;34408;51.426;5.444;2022-09-13T07:34:54;7.32;;;3.83;;
48613;SDS011;34408;51.426;5.444;2022-09-13T07:37:21;6.70;;;3.97;;
48613;SDS011;34408;51.426;5.444;2022-09-13T07:39:49;6.47;;;3.00;;
48613;SDS011;34408;51.426;5.444;2022-09-13T07:42:17;5.55;;;3.33;;
48613;SDS011;34408;51.426;5.444;2022-09-13T07:44:44;6.22;;;3.80;;
48613;SDS011;34408;51.426;5.444;2022-09-13T07:47:13;6.63;;;3.33;;
48613;SDS011;34408;51.426;5.444;2022-09-13T07:49:41;4.50;;;3.25;;
48613;SDS011;34408;51.426;5.444;2022-09-13T07:52:09;4.95;;;3.33;;
48613;SDS011;34408;51.426;5.444;2022-09-13T07:54:36;6.68;;;3.90;;
48613;SDS011;34408;51.426;5.444;2022-09-13T07:57:04;6.05;;;3.58;;
48613;SDS011;34408;51.426;5.444;2022-09-13T07:59:31;5.68;;;3.85;;
48613;SDS011;34408;51.426;5.444;2022-09-13T08:01:59;5.57;;;3.80;;
48613;SDS011;34408;51.426;5.444;2022-09-13T08:04:28;5.63;;;3.72;;
48613;SDS011;34408;51.426;5.444;2022-09-13T08:07:01;6.80;;;3.28;;
48613;SDS011;34408;51.426;5.444;2022-09-13T08:09:29;7.65;;;3.67;;
48613;SDS011;34408;51.426;5.444;2022-09-13T08:11:56;5.72;;;3.55;;
48613;SDS011;34408;51.426;5.444;2022-09-13T08:14:24;6.45;;;3.83;;
48613;SDS011;34408;51.426;5.444;2022-09-13T08:16:53;5.60;;;3.67;;
48613;SDS011;34408;51.426;5.444;2022-09-13T08:19:21;5.32;;;3.97;;
48613;SDS011;34408;51.426;5.444;2022-09-13T08:21:50;6.53;;;3.80;;
48613;SDS011;34408;51.426;5.444;2022-09-13T08:24:19;5.40;;;3.75;;
48613;SDS011;34408;51.426;5.444;2022-09-13T08:26:47;8.63;;;3.60;;
48613;SDS011;34408;51.426;5.444;2022-09-13T08:29:17;8.90;;;4.38;;
48613;SDS011;34408;51.426;5.444;2022-09-13T08:31:44;4.85;;;3.60;;
48613;SDS011;34408;51.426;5.444;2022-09-13T08:34:13;8.60;;;4.00;;
48613;SDS011;34408;51.426;5.444;2022-09-13T08:36:43;6.05;;;4.22;;
48613;SDS011;34408;51.426;5.444;2022-09-13T08:39:12;6.18;;;3.97;;
48613;SDS011;34408;51.426;5.444;2022-09-13T08:41:46;6.53;;;3.88;;
48613;SDS011;34408;51.426;5.444;2022-09-13T08:44:26;8.30;;;4.70;;
48613;SDS011;34408;51.426;5.444;2022-09-13T08:46:57;9.32;;;4.10;;
48613;SDS011;34408;51.426;5.444;2022-09-13T08:49:31;6.68;;;4.18;;
48613;SDS011;34408;51.426;5.444;2022-09-13T08:52:04;7.88;;;4.25;;
48613;SDS011;34408;51.426;5.444;2022-09-13T08:54:45;6.25;;;4.35;;
48613;SDS011;34408;51.426;5.444;2022-09-13T08:57:14;9.02;;;4.47;;
48613;SDS011;34408;51.426;5.444;2022-09-13T08:59:48;7.18;;;4.80;;
48613;SDS011;34408;51.426;5.444;2022-09-13T09:02:27;10.35;;;5.20;;
48613;SDS011;34408;51.426;5.444;2022-09-13T09:05:10;9.27;;;4.88;;
48613;SDS011;34408;51.426;5.444;2022-09-13T09:07:43;10.70;;;5.95;;
48613;SDS011;34408;51.426;5.444;2022-09-13T09:10:16;12.52;;;8.20;;
48613;SDS011;34408;51.426;5.444;2022-09-13T09:12:47;10.23;;;7.07;;
48613;SDS011;34408;51.426;5.444;2022-09-13T09:15:19;10.35;;;6.90;;
48613;SDS011;34408;51.426;5.444;2022-09-13T09:17:51;11.90;;;6.43;;
48613;SDS011;34408;51.426;5.444;2022-09-13T09:20:26;10.75;;;5.88;;
48613;SDS011;34408;51.426;5.444;2022-09-13T09:22:59;8.90;;;5.60;;
48613;SDS011;34408;51.426;5.444;2022-09-13T09:25:30;11.80;;;6.28;;
48613;SDS011;34408;51.426;5.444;2022-09-13T09:28:00;9.40;;;6.25;;
48613;SDS011;34408;51.426;5.444;2022-09-13T09:30:37;10.38;;;5.50;;
48613;SDS011;34408;51.426;5.444;2022-09-13T09:33:16;9.75;;;5.88;;
48613;SDS011;34408;51.426;5.444;2022-09-13T09:35:55;9.00;;;5.20;;
48613;SDS011;34408;51.426;5.444;2022-09-13T09:38:32;6.53;;;4.93;;
48613;SDS011;34408;51.426;5.444;2022-09-13T09:41:08;8.38;;;4.65;;
48613;SDS011;34408;51.426;5.444;2022-09-13T09:46:11;9.88;;;4.90;;
48613;SDS011;34408;51.426;5.444;2022-09-13T09:48:43;8.85;;;4.60;;
48613;SDS011;34408;51.426;5.444;2022-09-13T09:51:14;10.27;;;4.65;;
48613;SDS011;34408;51.426;5.444;2022-09-13T09:53:46;7.90;;;5.35;;
48613;SDS011;34408;51.426;5.444;2022-09-13T09:56:22;7.32;;;5.00;;
48613;SDS011;34408;51.426;5.444;2022-09-13T09:58:51;11.88;;;5.40;;
48613;SDS011;34408;51.426;5.444;2022-09-13T10:01:22;8.20;;;5.15;;
48613;SDS011;34408;51.426;5.444;2022-09-13T10:03:53;6.53;;;4.63;;
48613;SDS011;34408;51.426;5.444;2022-09-13T10:06:27;7.20;;;4.95;;
48613;SDS011;34408;51.426;5.444;2022-09-13T10:08:57;12.07;;;5.25;;
48613;SDS011;34408;51.426;5.444;2022-09-13T10:11:39;8.02;;;4.63;;
48613;SDS011;34408;51.426;5.444;2022-09-13T10:17:12;7.95;;;5.20;;
48613;SDS011;34408;51.426;5.444;2022-09-13T10:22:23;11.13;;;5.65;;
48613;SDS011;34408;51.426;5.444;2022-09-13T10:24:51;9.35;;;5.82;;
48613;SDS011;34408;51.426;5.444;2022-09-13T10:27:22;8.93;;;4.63;;
48613;SDS011;34408;51.426;5.444;2022-09-13T10:29:56;6.22;;;4.50;;
48613;SDS011;34408;51.426;5.444;2022-09-13T10:32:26;7.00;;;4.53;;
48613;SDS011;34408;51.426;5.444;2022-09-13T10:34:55;5.95;;;4.05;;
48613;SDS011;34408;51.426;5.444;2022-09-13T10:37:27;8.35;;;4.45;;
48613;SDS011;34408;51.426;5.444;2022-09-13T10:40:00;6.68;;;3.85;;
48613;SDS011;34408;51.426;5.444;2022-09-13T10:42:34;8.18;;;4.78;;
48613;SDS011;34408;51.426;5.444;2022-09-13T10:45:03;9.50;;;4.65;;
48613;SDS011;34408;51.426;5.444;2022-09-13T10:47:33;8.23;;;4.70;;
48613;SDS011;34408;51.426;5.444;2022-09-13T10:50:15;5.88;;;4.00;;
48613;SDS011;34408;51.426;5.444;2022-09-13T10:52:46;12.05;;;5.25;;
48613;SDS011;34408;51.426;5.444;2022-09-13T10:55:26;10.95;;;5.13;;
48613;SDS011;34408;51.426;5.444;2022-09-13T11:01:02;9.70;;;5.53;;
48613;SDS011;34408;51.426;5.444;2022-09-13T11:07:21;9.00;;;5.65;;
48613;SDS011;34408;51.426;5.444;2022-09-13T11:10:01;8.90;;;5.45;;
48613;SDS011;34408;51.426;5.444;2022-09-13T11:12:34;5.43;;;4.00;;
48613;SDS011;34408;51.426;5.444;2022-09-13T11:15:14;6.85;;;4.32;;
48613;SDS011;34408;51.426;5.444;2022-09-13T11:17:58;7.13;;;5.22;;
48613;SDS011;34408;51.426;5.444;2022-09-13T11:20:37;8.52;;;4.38;;
48613;SDS011;34408;51.426;5.444;2022-09-13T11:23:26;5.53;;;4.75;;
48613;SDS011;34408;51.426;5.444;2022-09-13T11:26:11;10.88;;;5.97;;
48613;SDS011;34408;51.426;5.444;2022-09-13T11:29:05;8.73;;;4.10;;
48613;SDS011;34408;51.426;5.444;2022-09-13T11:31:47;8.23;;;3.90;;
48613;SDS011;34408;51.426;5.444;2022-09-13T11:34:30;7.68;;;4.28;;
48613;SDS011;34408;51.426;5.444;2022-09-13T11:37:13;6.85;;;3.88;;
48613;SDS011;34408;51.426;5.444;2022-09-13T11:39:55;7.55;;;4.15;;
48613;SDS011;34408;51.426;5.444;2022-09-13T11:42:33;7.10;;;4.85;;
48613;SDS011;34408;51.426;5.444;2022-09-13T11:45:20;8.05;;;4.30;;
48613;SDS011;34408;51.426;5.444;2022-09-13T11:47:58;7.45;;;4.40;;
48613;SDS011;34408;51.426;5.444;2022-09-13T11:50:35;7.30;;;3.83;;
48613;SDS011;34408;51.426;5.444;2022-09-13T11:53:18;8.45;;;4.55;;
48613;SDS011;34408;51.426;5.444;2022-09-13T11:55:59;8.13;;;3.72;;
48613;SDS011;34408;51.426;5.444;2022-09-13T11:58:31;8.00;;;4.07;;
48613;SDS011;34408;51.426;5.444;2022-09-13T12:01:04;5.47;;;3.30;;
48613;SDS011;34408;51.426;5.444;2022-09-13T12:03:38;6.05;;;3.47;;
48613;SDS011;34408;51.426;5.444;2022-09-13T12:06:10;6.90;;;3.58;;
48613;SDS011;34408;51.426;5.444;2022-09-13T12:08:43;6.20;;;3.97;;
48613;SDS011;34408;51.426;5.444;2022-09-13T12:11:15;5.22;;;3.67;;
48613;SDS011;34408;51.426;5.444;2022-09-13T12:13:47;5.50;;;3.33;;
48613;SDS011;34408;51.426;5.444;2022-09-13T12:16:21;5.32;;;3.00;;
48613;SDS011;34408;51.426;5.444;2022-09-13T12:18:53;6.75;;;3.90;;
48613;SDS011;34408;51.426;5.444;2022-09-13T12:21:24;6.10;;;4.53;;
48613;SDS011;34408;51.426;5.444;2022-09-13T12:24:00;7.82;;;3.47;;
48613;SDS011;34408;51.426;5.444;2022-09-13T12:26:30;5.53;;;3.20;;
48613;SDS011;34408;51.426;5.444;2022-09-13T12:29:04;8.25;;;3.25;;
48613;SDS011;34408;51.426;5.444;2022-09-13T12:31:37;8.40;;;4.13;;
48613;SDS011;34408;51.426;5.444;2022-09-13T12:34:08;6.35;;;3.30;;
48613;SDS011;34408;51.426;5.444;2022-09-13T12:39:33;9.18;;;3.92;;
48613;SDS011;34408;51.426;5.444;2022-09-13T12:45:21;6.45;;;3.55;;
48613;SDS011;34408;51.426;5.444;2022-09-13T12:48:08;6.03;;;3.33;;
48613;SDS011;34408;51.426;5.444;2022-09-13T12:50:57;8.15;;;3.53;;
48613;SDS011;34408;51.426;5.444;2022-09-13T12:53:51;4.57;;;2.60;;
48613;SDS011;34408;51.426;5.444;2022-09-13T12:56:51;5.65;;;2.67;;
48613;SDS011;34408;51.426;5.444;2022-09-13T12:59:32;7.13;;;3.00;;
48613;SDS011;34408;51.426;5.444;2022-09-13T13:02:26;2.88;;;2.30;;
48613;SDS011;34408;51.426;5.444;2022-09-13T13:04:59;3.53;;;2.35;;
48613;SDS011;34408;51.426;5.444;2022-09-13T13:07:32;8.52;;;2.80;;
48613;SDS011;34408;51.426;5.444;2022-09-13T13:10:03;8.20;;;3.75;;
48613;SDS011;34408;51.426;5.444;2022-09-13T13:12:32;7.13;;;3.17;;
48613;SDS011;34408;51.426;5.444;2022-09-13T13:15:04;4.53;;;2.35;;
48613;SDS011;34408;51.426;5.444;2022-09-13T13:17:38;4.90;;;3.05;;
48613;SDS011;34408;51.426;5.444;2022-09-13T13:23:17;6.43;;;2.35;;
48613;SDS011;34408;51.426;5.444;2022-09-13T13:25:54;7.78;;;3.22;;
48613;SDS011;34408;51.426;5.444;2022-09-13T13:31:33;6.00;;;2.67;;
48613;SDS011;34408;51.426;5.444;2022-09-13T13:34:25;5.37;;;2.43;;
48613;SDS011;34408;51.426;5.444;2022-09-13T13:36:56;5.38;;;2.70;;
48613;SDS011;34408;51.426;5.444;2022-09-13T13:39:36;5.13;;;2.45;;
48613;SDS011;34408;51.426;5.444;2022-09-13T13:42:12;3.00;;;2.15;;
48613;SDS011;34408;51.426;5.444;2022-09-13T13:45:03;6.65;;;2.20;;
48613;SDS011;34408;51.426;5.444;2022-09-13T13:53:41;4.85;;;2.63;;
48613;SDS011;34408;51.426;5.444;2022-09-13T13:56:18;4.40;;;2.65;;
48613;SDS011;34408;51.426;5.444;2022-09-13T13:58:53;4.47;;;2.15;;
48613;SDS011;34408;51.426;5.444;2022-09-13T14:01:23;5.03;;;2.30;;
48613;SDS011;34408;51.426;5.444;2022-09-13T14:07:01;6.53;;;2.22;;
48613;SDS011;34408;51.426;5.444;2022-09-13T14:12:21;4.57;;;2.30;;
48613;SDS011;34408;51.426;5.444;2022-09-13T14:15:03;5.90;;;2.53;;
48613;SDS011;34408;51.426;5.444;2022-09-13T14:20:58;4.78;;;2.30;;
48613;SDS011;34408;51.426;5.444;2022-09-13T14:23:27;5.35;;;2.65;;
48613;SDS011;34408;51.426;5.444;2022-09-13T14:25:55;4.97;;;2.65;;
48613;SDS011;34408;51.426;5.444;2022-09-13T14:28:26;6.07;;;2.00;;
48613;SDS011;34408;51.426;5.444;2022-09-13T14:30:55;4.35;;;2.25;;
48613;SDS011;34408;51.426;5.444;2022-09-13T14:33:25;7.88;;;2.25;;
48613;SDS011;34408;51.426;5.444;2022-09-13T14:35:58;4.13;;;2.17;;
48613;SDS011;34408;51.426;5.444;2022-09-13T14:38:29;5.00;;;2.60;;
48613;SDS011;34408;51.426;5.444;2022-09-13T14:41:01;4.22;;;2.30;;
48613;SDS011;34408;51.426;5.444;2022-09-13T14:43:40;6.28;;;2.35;;
48613;SDS011;34408;51.426;5.444;2022-09-13T14:46:11;4.75;;;2.60;;
48613;SDS011;34408;51.426;5.444;2022-09-13T14:48:45;3.05;;;2.22;;
48613;SDS011;34408;51.426;5.444;2022-09-13T14:51:18;3.38;;;2.05;;
48613;SDS011;34408;51.426;5.444;2022-09-13T14:53:49;2.83;;;1.63;;
48613;SDS011;34408;51.426;5.444;2022-09-13T14:56:24;4.03;;;2.10;;
48613;SDS011;34408;51.426;5.444;2022-09-13T14:59:01;5.13;;;2.22;;
48613;SDS011;34408;51.426;5.444;2022-09-13T15:01:32;4.68;;;2.20;;
48613;SDS011;34408;51.426;5.444;2022-09-13T15:04:02;10.57;;;3.15;;
48613;SDS011;34408;51.426;5.444;2022-09-13T15:06:31;5.43;;;2.33;;
48613;SDS011;34408;51.426;5.444;2022-09-13T15:09:12;7.30;;;2.38;;
48613;SDS011;34408;51.426;5.444;2022-09-13T15:11:54;5.68;;;2.60;;
48613;SDS011;34408;51.426;5.444;2022-09-13T15:14:26;3.55;;;1.88;;
48613;SDS011;34408;51.426;5.444;2022-09-13T15:16:59;4.95;;;1.98;;
48613;SDS011;34408;51.426;5.444;2022-09-13T15:19:35;4.15;;;2.03;;
48613;SDS011;34408;51.426;5.444;2022-09-13T15:22:10;5.38;;;2.40;;
48613;SDS011;34408;51.426;5.444;2022-09-13T15:24:44;3.70;;;2.45;;
48613;SDS011;34408;51.426;5.444;2022-09-13T15:27:15;4.38;;;2.30;;
48613;SDS011;34408;51.426;5.444;2022-09-13T15:29:50;4.15;;;2.40;;
48613;SDS011;34408;51.426;5.444;2022-09-13T15:32:21;4.55;;;2.47;;
48613;SDS011;34408;51.426;5.444;2022-09-13T15:34:50;6.20;;;2.80;;
48613;SDS011;34408;51.426;5.444;2022-09-13T15:37:26;5.50;;;2.70;;
48613;SDS011;34408;51.426;5.444;2022-09-13T15:40:14;5.00;;;2.85;;
48613;SDS011;34408;51.426;5.444;2022-09-13T15:42:47;4.78;;;2.20;;
48613;SDS011;34408;51.426;5.444;2022-09-13T15:45:17;4.78;;;2.97;;
48613;SDS011;34408;51.426;5.444;2022-09-13T15:47:47;4.93;;;2.05;;
48613;SDS011;34408;51.426;5.444;2022-09-13T15:50:19;3.78;;;1.98;;
48613;SDS011;34408;51.426;5.444;2022-09-13T15:52:48;7.63;;;2.45;;
48613;SDS011;34408;51.426;5.444;2022-09-13T15:55:16;4.30;;;2.10;;
48613;SDS011;34408;51.426;5.444;2022-09-13T15:57:44;4.55;;;2.25;;
48613;SDS011;34408;51.426;5.444;2022-09-13T16:00:17;3.88;;;2.00;;
48613;SDS011;34408;51.426;5.444;2022-09-13T16:02:46;2.63;;;1.90;;
48613;SDS011;34408;51.426;5.444;2022-09-13T16:05:14;2.67;;;1.85;;
48613;SDS011;34408;51.426;5.444;2022-09-13T16:07:43;3.40;;;2.08;;
48613;SDS011;34408;51.426;5.444;2022-09-13T16:10:13;3.10;;;1.95;;